createdAt,value
2023-05-25T00:00:25.797Z,12.69
2023-05-25T00:05:27.724Z,12.69
2023-05-25T00:10:29.403Z,12.55
2023-05-25T00:15:30.899Z,12.50
2023-05-25T00:20:33.267Z,12.55
2023-05-25T00:25:34.830Z,12.49
2023-05-25T00:30:36.353Z,12.36
2023-05-25T00:35:37.973Z,12.05
2023-05-25T00:40:41.286Z,11.84
2023-05-25T00:45:42.989Z,11.86
2023-05-25T00:50:45.842Z,12.03
2023-05-25T00:55:59.808Z,12.03
2023-05-25T01:01:03.788Z,12.02
2023-05-25T01:06:11.875Z,12.01
2023-05-25T01:11:15.030Z,11.93
2023-05-25T01:16:17.102Z,11.85
2023-05-25T01:21:38.057Z,11.72
2023-05-25T01:26:44.390Z,11.69
2023-05-25T01:31:47.820Z,11.75
2023-05-25T01:36:49.704Z,11.71
2023-05-25T01:41:51.158Z,11.60
2023-05-25T01:47:05.599Z,11.53
2023-05-25T01:52:26.756Z,11.42
2023-05-25T01:57:29.777Z,11.41
2023-05-25T02:02:33.573Z,11.36
2023-05-25T02:07:36.397Z,11.37
2023-05-25T02:12:37.993Z,11.25
2023-05-25T02:17:39.469Z,11.26
2023-05-25T02:22:40.993Z,11.26
2023-05-25T02:27:43.160Z,11.16
2023-05-25T02:32:44.859Z,11.26
2023-05-25T02:37:48.463Z,11.26
2023-05-25T02:42:51.822Z,11.24
2023-05-25T02:47:53.306Z,11.11
2023-05-25T02:52:55.015Z,11.09
2023-05-25T02:57:56.985Z,11.10
2023-05-25T03:02:58.534Z,11.03
2023-05-25T03:08:00.008Z,11.07
2023-05-25T03:13:01.473Z,11.05
2023-05-25T03:18:03.028Z,11.12
2023-05-25T03:23:04.709Z,11.13
2023-05-25T03:28:06.298Z,11.26
2023-05-25T03:33:07.879Z,11.40
2023-05-25T03:38:09.416Z,11.47
2023-05-25T03:43:10.865Z,11.30
2023-05-25T03:48:12.372Z,11.41
2023-05-25T03:53:13.834Z,11.53
2023-05-25T03:58:16.088Z,11.64
2023-05-25T04:03:17.697Z,11.73
2023-05-25T04:08:22.466Z,11.72
2023-05-25T04:13:24.038Z,11.79
2023-05-25T04:18:25.689Z,11.78
2023-05-25T04:23:27.791Z,11.66
2023-05-25T04:28:29.407Z,11.57
2023-05-25T04:33:30.932Z,11.54
2023-05-25T04:38:33.325Z,11.70
2023-05-25T04:43:34.851Z,11.82
2023-05-25T04:48:39.096Z,11.51
2023-05-25T04:53:40.707Z,11.56
2023-05-25T04:58:42.271Z,11.73
2023-05-25T05:03:43.761Z,11.70
2023-05-25T05:08:45.224Z,11.77
2023-05-25T05:13:46.740Z,11.97
2023-05-25T05:18:48.496Z,12.13
2023-05-25T05:23:50.046Z,12.26
2023-05-25T05:28:52.636Z,12.24
2023-05-25T05:33:54.196Z,12.28
2023-05-25T05:38:55.905Z,12.40
2023-05-25T05:43:57.360Z,12.52
2023-05-25T05:48:58.832Z,12.57
2023-05-25T05:54:00.368Z,12.83
2023-05-25T05:59:01.866Z,12.67
2023-05-25T06:04:08.111Z,12.68
2023-05-25T06:09:09.657Z,12.79
2023-05-25T06:14:11.362Z,12.88
2023-05-25T06:19:14.422Z,12.99
2023-05-25T06:24:16.276Z,13.29
2023-05-25T06:29:17.764Z,13.50
2023-05-25T06:34:19.324Z,13.51
2023-05-25T06:39:20.784Z,13.52
2023-05-25T06:44:22.239Z,13.67
2023-05-25T06:49:23.687Z,13.57
2023-05-25T06:54:25.126Z,13.78
2023-05-25T06:59:26.682Z,14.16
2023-05-25T07:04:28.638Z,14.20
2023-05-25T07:09:30.196Z,14.28
2023-05-25T07:14:31.668Z,14.31
2023-05-25T07:19:33.203Z,14.34
2023-05-25T07:24:34.675Z,14.49
2023-05-25T07:29:36.203Z,14.66
2023-05-25T07:34:37.780Z,14.81
2023-05-25T07:39:40.546Z,14.78
2023-05-25T07:44:42.020Z,14.78
2023-05-25T07:49:43.477Z,15.09
2023-05-25T07:54:45.668Z,15.23
2023-05-25T07:59:47.245Z,15.31
2023-05-25T08:04:48.752Z,15.38
2023-05-25T08:09:50.328Z,15.50
2023-05-25T08:14:51.889Z,15.38
2023-05-25T08:19:54.823Z,15.38
2023-05-25T08:24:56.362Z,15.77
2023-05-25T08:29:57.803Z,15.77
2023-05-25T08:34:59.247Z,15.77
2023-05-25T08:40:02.553Z,15.86
2023-05-25T08:45:04.463Z,16.01
2023-05-25T08:50:08.764Z,15.94
2023-05-25T08:55:11.082Z,15.95
2023-05-25T09:00:15.687Z,16.23
2023-05-25T09:05:17.893Z,16.17
2023-05-25T09:10:19.481Z,15.97
2023-05-25T09:15:21.219Z,16.23
2023-05-25T09:20:23.929Z,16.40
2023-05-25T09:25:27.609Z,16.26
2023-05-25T09:30:32.840Z,16.52
2023-05-25T09:35:35.384Z,16.51
2023-05-25T09:40:38.197Z,16.74
2023-05-25T09:45:39.744Z,16.86
2023-05-25T09:50:41.270Z,16.92
2023-05-25T09:55:53.300Z,17.17
2023-05-25T10:00:56.074Z,17.50
2023-05-25T10:05:57.745Z,17.57
2023-05-25T10:10:59.706Z,17.62
2023-05-25T10:16:02.201Z,17.64
2023-05-25T10:21:05.262Z,18.08
2023-05-25T10:26:09.228Z,18.41
2023-05-25T10:31:12.242Z,18.51
2023-05-25T10:36:14.911Z,18.61
2023-05-25T10:41:17.792Z,19.00
2023-05-25T10:46:19.483Z,19.07
2023-05-25T10:51:21.760Z,19.43
2023-05-25T10:56:23.283Z,19.60
2023-05-25T11:01:25.527Z,19.70
2023-05-25T11:06:44.256Z,19.72
2023-05-25T11:11:50.159Z,19.87
2023-05-25T11:17:15.261Z,19.69
2023-05-25T11:22:30.669Z,19.74
2023-05-25T11:27:32.522Z,19.82
2023-05-25T11:32:34.166Z,19.86
2023-05-25T11:37:36.173Z,20.13
2023-05-25T11:42:38.374Z,20.09
2023-05-25T11:47:39.944Z,20.20
2023-05-25T11:52:41.580Z,20.36
2023-05-25T11:57:43.267Z,20.39
2023-05-25T12:02:44.818Z,20.49
2023-05-25T12:07:46.982Z,20.09
2023-05-25T12:12:51.802Z,20.26
2023-05-25T12:17:54.174Z,20.44
2023-05-25T12:22:56.104Z,20.29
2023-05-25T12:28:11.438Z,20.11
2023-05-25T12:33:14.197Z,20.24
2023-05-25T12:38:18.918Z,20.39
2023-05-25T12:43:20.523Z,20.32
2023-05-25T12:48:32.117Z,20.59
2023-05-25T12:53:49.763Z,20.29
2023-05-25T12:58:51.349Z,20.28
2023-05-25T13:03:54.224Z,20.20
2023-05-25T13:08:55.687Z,20.19
2023-05-25T13:13:57.158Z,20.10
2023-05-25T13:18:58.697Z,20.33
2023-05-25T13:24:00.186Z,20.53
2023-05-25T13:29:01.780Z,20.58
2023-05-25T13:34:03.624Z,20.79
2023-05-25T13:39:05.381Z,21.07
2023-05-25T13:44:06.928Z,21.09
2023-05-25T13:49:08.393Z,21.06
2023-05-25T13:54:09.848Z,20.85
2023-05-25T13:59:11.416Z,20.66
2023-05-25T14:04:15.707Z,20.68
2023-05-25T14:09:17.397Z,20.55
2023-05-25T14:14:30.054Z,20.66
2023-05-25T14:19:32.954Z,20.71
2023-05-25T14:24:34.469Z,20.28
2023-05-25T14:29:36.185Z,20.45
2023-05-25T14:34:37.714Z,20.71
2023-05-25T14:39:39.192Z,20.94
2023-05-25T14:44:40.703Z,20.89
2023-05-25T14:49:42.617Z,20.95
2023-05-25T14:54:44.956Z,20.91
2023-05-25T14:59:46.562Z,20.83
2023-05-25T15:04:48.087Z,20.79
2023-05-25T15:09:49.615Z,20.61
2023-05-25T15:14:51.117Z,20.53
2023-05-25T15:19:52.636Z,20.79
2023-05-25T15:24:54.158Z,20.91
2023-05-25T15:29:55.679Z,20.73
2023-05-25T15:34:57.137Z,20.62
2023-05-25T15:39:58.641Z,20.57
2023-05-25T15:45:00.148Z,20.52
2023-05-25T15:50:01.688Z,20.48
2023-05-25T15:55:03.452Z,20.45
2023-05-25T16:00:05.677Z,20.33
2023-05-25T16:05:07.635Z,20.44
2023-05-25T16:10:09.602Z,20.16
2023-05-25T16:15:11.115Z,20.05
2023-05-25T16:20:12.758Z,19.95
2023-05-25T16:25:14.249Z,20.00
2023-05-25T16:30:15.804Z,19.86
2023-05-25T16:35:17.331Z,19.78
2023-05-25T16:40:18.792Z,19.81
2023-05-25T16:45:23.210Z,19.75
2023-05-25T16:50:24.712Z,19.74
2023-05-25T16:55:26.304Z,19.81
2023-05-25T17:00:27.823Z,19.74
2023-05-25T17:05:29.407Z,19.80
2023-05-25T17:10:30.873Z,19.78
2023-05-25T17:15:32.375Z,19.80
2023-05-25T17:20:33.870Z,19.71
2023-05-25T17:25:35.349Z,19.57
2023-05-25T17:30:36.912Z,19.45
2023-05-25T17:35:38.370Z,19.38
2023-05-25T17:40:39.827Z,19.30
2023-05-25T17:45:41.459Z,19.23
2023-05-25T17:50:43.148Z,19.15
2023-05-25T17:55:44.824Z,19.08
2023-05-25T18:00:46.609Z,19.07
2023-05-25T18:05:48.096Z,19.04
2023-05-25T18:10:50.589Z,18.99
2023-05-25T18:15:52.143Z,18.94
2023-05-25T18:20:53.586Z,18.78
2023-05-25T18:25:55.174Z,18.73
2023-05-25T18:30:56.668Z,18.58
2023-05-25T18:35:58.167Z,18.45
2023-05-25T18:40:59.759Z,18.32
2023-05-25T18:46:01.278Z,18.16
2023-05-25T18:51:03.214Z,18.03
2023-05-25T18:56:04.891Z,17.87
2023-05-25T19:01:06.376Z,17.79
2023-05-25T19:06:07.825Z,17.62
2023-05-25T19:11:09.313Z,17.48
2023-05-25T19:16:10.956Z,17.39
2023-05-25T19:21:12.480Z,17.28
2023-05-25T19:26:14.028Z,17.16
2023-05-25T19:31:15.574Z,17.06
2023-05-25T19:36:17.109Z,16.98
2023-05-25T19:41:18.754Z,16.87
2023-05-25T19:46:20.279Z,16.76
2023-05-25T19:51:21.801Z,16.66
2023-05-25T19:56:23.257Z,16.57
2023-05-25T20:01:24.920Z,16.47
2023-05-25T20:06:26.396Z,16.36
2023-05-25T20:11:28.335Z,16.29
2023-05-25T20:16:29.819Z,16.20
2023-05-25T20:21:31.311Z,16.12
2023-05-25T20:26:33.980Z,16.04
2023-05-25T20:31:35.634Z,15.96
2023-05-25T20:36:37.296Z,15.90
2023-05-25T20:41:38.755Z,15.81
2023-05-25T20:46:40.523Z,15.74
2023-05-25T20:51:44.470Z,15.68
2023-05-25T20:56:47.808Z,15.61
2023-05-25T21:01:49.358Z,15.52
2023-05-25T21:06:50.887Z,15.43
2023-05-25T21:11:52.338Z,15.25
2023-05-25T21:16:53.799Z,15.17
2023-05-25T21:21:55.331Z,15.18
2023-05-25T21:26:56.788Z,15.13
2023-05-25T21:31:59.626Z,15.11
2023-05-25T21:37:01.094Z,15.10
2023-05-25T21:42:03.429Z,15.08
2023-05-25T21:47:05.141Z,15.10
2023-05-25T21:52:06.719Z,15.11
2023-05-25T21:57:08.164Z,15.22
2023-05-25T22:02:09.652Z,15.30
2023-05-25T22:07:11.121Z,15.32
2023-05-25T22:12:12.917Z,15.38
2023-05-25T22:17:15.904Z,15.39
2023-05-25T22:22:17.378Z,15.38
2023-05-25T22:27:18.853Z,15.44
2023-05-25T22:32:20.366Z,15.48
2023-05-25T22:37:21.812Z,15.46
2023-05-25T22:42:23.339Z,15.37
2023-05-25T22:47:24.931Z,15.30
2023-05-25T22:52:26.552Z,15.20
2023-05-25T22:57:28.039Z,15.08
2023-05-25T23:02:29.648Z,15.01
2023-05-25T23:07:31.433Z,14.94
2023-05-25T23:12:32.916Z,14.92
2023-05-25T23:17:34.447Z,14.92
2023-05-25T23:22:36.272Z,14.81
2023-05-25T23:27:38.022Z,14.71
2023-05-25T23:32:39.596Z,14.66
2023-05-25T23:37:41.126Z,14.64
2023-05-25T23:42:44.204Z,14.58
2023-05-25T23:47:45.675Z,14.50
2023-05-25T23:52:47.349Z,14.43
2023-05-25T23:57:48.809Z,14.32
